Aurora, IN

11:45 PM EDT on October 24, 2014 (GMT -0400)
Lawrenceburg 3.4 WNW | Change Station
CLOSE
Current Station
Personal Weather Station
Location: Lawrenceburg, IN
Elevation: 840 ft
Nearby Weather Stations

Elev 840 ft 39.12 °N, 84.92 °W | Updated 2 seconds ago

Partly Cloudy
Partly Cloudy
47.7 °F
Feels Like 48 °F
N
2.0
Wind Variable Wind from WSW
Gusts 4.0 mph

Today
High -- | Low -- °F
--% Chance of Precip.
Yesterday
High -- | Low -- °F
Precip. -- in
7:58 AM 6:48 PM
New Moon, 2% visible
Pressure 30.04 in
Visibility 10.0 miles
Clouds Scattered Clouds 25000 ft
Windchill 48 °F
Dew Point 43 °F
Humidity 84%
Rainfall 0.00 in
Snow Depth Not available.
UV 0 out of 12
Pollen .90 out of 12
Air Quality Not available.
Flu Activity Sporadic
METAR KCVG 250252Z 00000KT 10SM SCT250 09/05 A3004 RMK AO2 SLP171 T00940050 51002

More Conditions Fewer Conditions

Pressure 30.04 in
Visibility 10.0 miles
Clouds Scattered Clouds 25000 ft
Windchill 48 °F
Dew Point 43 °F
Humidity 84%
Rainfall 0.00 in
Snow Depth Not available.
UV 0 out of 12
Pollen .90 out of 12
Air Quality Not available.
Flu Activity Sporadic
METAR KCVG 250252Z 00000KT 10SM SCT250 09/05 A3004 RMK AO2 SLP171 T00940050 51002

More Conditions Fewer Conditions

10-Day Weather Forecast

Almanac

Astronomy

Oct. 24, 2014 Rise Set
Actual Time 7:58 AM EDT 6:48 PM EDT
Civil Twilight 7:31 AM EDT 7:16 PM EDT
Nautical Twilight 7:00 AM EDT 7:47 PM EDT
Astronomical Twilight 6:29 AM EDT 8:18 PM EDT
Moon 8:36 AM EDT (10/24) 7:28 PM EDT (10/24)
Length of Visible Light 11h 44m
Length of Day
10h 49m
Tomorrow will be 2m 21s shorter.
New Moon, 2% of the Moon is Illuminated
Today
New Moon
Oct 30
First Quarter
Nov 6
Full
Nov 14
Last Quarter
Nov 22
New

Today's Extremes

State Highs State Lows

Community

WunderPhotos

Upload Photos

1,764,772 photos uploaded!

Nearby

Snow Depth

Station Depth Elevation
No new snow has been reported.

Earthquake Activity

City Distance Mag. Time & Date
No recent earthquake activity has been reported nearby.
Minimum magnitude displayed is 2.5.

Coastal Water Temperatures

Place Temperature
No Stations Reporting

Nearby Weather Stations